sensor_id;sensor_type;location;lat;lon;timestamp;P1;durP1;ratioP1;P2;durP2;ratioP2
21014;SDS011;19207;-23.482;-46.500;2023-07-30T00:00:10;11.80;;;6.68;;
21014;SDS011;19207;-23.482;-46.500;2023-07-30T00:02:57;14.93;;;6.75;;
21014;SDS011;19207;-23.482;-46.500;2023-07-30T00:05:51;13.65;;;7.25;;
21014;SDS011;19207;-23.482;-46.500;2023-07-30T00:08:38;22.83;;;12.65;;
21014;SDS011;19207;-23.482;-46.500;2023-07-30T00:11:25;25.40;;;13.13;;
21014;SDS011;19207;-23.482;-46.500;2023-07-30T00:14:12;21.80;;;13.15;;
21014;SDS011;19207;-23.482;-46.500;2023-07-30T00:16:59;23.55;;;12.45;;
21014;SDS011;19207;-23.482;-46.500;2023-07-30T00:19:47;29.10;;;15.88;;
21014;SDS011;19207;-23.482;-46.500;2023-07-30T00:22:33;24.30;;;13.00;;
21014;SDS011;19207;-23.482;-46.500;2023-07-30T00:25:20;17.65;;;9.68;;
21014;SDS011;19207;-23.482;-46.500;2023-07-30T00:28:07;15.25;;;8.93;;
21014;SDS011;19207;-23.482;-46.500;2023-07-30T00:30:54;17.33;;;9.98;;
21014;SDS011;19207;-23.482;-46.500;2023-07-30T00:37:41;20.05;;;10.90;;
21014;SDS011;19207;-23.482;-46.500;2023-07-30T00:40:28;18.25;;;11.23;;
21014;SDS011;19207;-23.482;-46.500;2023-07-30T00:43:15;28.52;;;16.65;;
21014;SDS011;19207;-23.482;-46.500;2023-07-30T00:46:03;25.00;;;14.18;;
21014;SDS011;19207;-23.482;-46.500;2023-07-30T00:48:49;24.27;;;13.80;;
21014;SDS011;19207;-23.482;-46.500;2023-07-30T00:51:36;24.37;;;13.02;;
21014;SDS011;19207;-23.482;-46.500;2023-07-30T00:54:24;12.52;;;7.60;;
21014;SDS011;19207;-23.482;-46.500;2023-07-30T00:57:29;17.62;;;9.75;;
21014;SDS011;19207;-23.482;-46.500;2023-07-30T01:00:18;18.30;;;10.90;;
21014;SDS011;19207;-23.482;-46.500;2023-07-30T01:03:05;14.65;;;8.55;;
21014;SDS011;19207;-23.482;-46.500;2023-07-30T01:05:52;17.75;;;10.20;;
21014;SDS011;19207;-23.482;-46.500;2023-07-30T01:08:39;17.62;;;7.20;;
21014;SDS011;19207;-23.482;-46.500;2023-07-30T01:11:26;14.27;;;8.63;;
21014;SDS011;19207;-23.482;-46.500;2023-07-30T01:14:14;11.57;;;6.93;;
21014;SDS011;19207;-23.482;-46.500;2023-07-30T01:17:01;15.85;;;10.10;;
21014;SDS011;19207;-23.482;-46.500;2023-07-30T01:19:48;12.15;;;6.95;;
21014;SDS011;19207;-23.482;-46.500;2023-07-30T01:22:36;9.20;;;5.05;;
21014;SDS011;19207;-23.482;-46.500;2023-07-30T01:25:23;8.20;;;4.60;;
21014;SDS011;19207;-23.482;-46.500;2023-07-30T01:28:12;11.65;;;7.62;;
21014;SDS011;19207;-23.482;-46.500;2023-07-30T01:31:03;11.23;;;6.32;;
21014;SDS011;19207;-23.482;-46.500;2023-07-30T01:33:52;11.63;;;6.57;;
21014;SDS011;19207;-23.482;-46.500;2023-07-30T01:36:41;8.77;;;5.37;;
21014;SDS011;19207;-23.482;-46.500;2023-07-30T01:39:28;7.10;;;5.00;;
21014;SDS011;19207;-23.482;-46.500;2023-07-30T01:42:16;7.05;;;5.10;;
21014;SDS011;19207;-23.482;-46.500;2023-07-30T01:45:03;8.95;;;5.97;;
21014;SDS011;19207;-23.482;-46.500;2023-07-30T01:47:50;8.40;;;5.95;;
21014;SDS011;19207;-23.482;-46.500;2023-07-30T01:50:37;11.45;;;7.18;;
21014;SDS011;19207;-23.482;-46.500;2023-07-30T01:53:24;10.27;;;6.25;;
21014;SDS011;19207;-23.482;-46.500;2023-07-30T01:56:11;9.40;;;6.10;;
21014;SDS011;19207;-23.482;-46.500;2023-07-30T01:58:59;8.40;;;6.00;;
21014;SDS011;19207;-23.482;-46.500;2023-07-30T02:01:46;7.35;;;5.47;;
21014;SDS011;19207;-23.482;-46.500;2023-07-30T02:04:33;11.27;;;5.72;;
21014;SDS011;19207;-23.482;-46.500;2023-07-30T02:07:20;10.05;;;5.50;;
21014;SDS011;19207;-23.482;-46.500;2023-07-30T02:10:07;10.90;;;5.87;;
21014;SDS011;19207;-23.482;-46.500;2023-07-30T02:12:54;7.20;;;5.10;;
21014;SDS011;19207;-23.482;-46.500;2023-07-30T02:15:41;8.10;;;4.80;;
21014;SDS011;19207;-23.482;-46.500;2023-07-30T02:18:28;7.75;;;3.87;;
21014;SDS011;19207;-23.482;-46.500;2023-07-30T02:21:15;5.85;;;3.85;;
21014;SDS011;19207;-23.482;-46.500;2023-07-30T02:24:03;6.53;;;3.78;;
21014;SDS011;19207;-23.482;-46.500;2023-07-30T02:26:55;6.72;;;3.90;;
21014;SDS011;19207;-23.482;-46.500;2023-07-30T02:29:42;6.37;;;4.28;;
21014;SDS011;19207;-23.482;-46.500;2023-07-30T02:32:30;7.72;;;4.30;;
21014;SDS011;19207;-23.482;-46.500;2023-07-30T02:35:17;7.50;;;4.28;;
21014;SDS011;19207;-23.482;-46.500;2023-07-30T02:38:03;5.65;;;4.03;;
21014;SDS011;19207;-23.482;-46.500;2023-07-30T02:40:50;5.25;;;4.22;;
21014;SDS011;19207;-23.482;-46.500;2023-07-30T02:43:37;9.90;;;4.93;;
21014;SDS011;19207;-23.482;-46.500;2023-07-30T02:46:24;7.70;;;4.90;;
21014;SDS011;19207;-23.482;-46.500;2023-07-30T02:49:11;10.68;;;6.70;;
21014;SDS011;19207;-23.482;-46.500;2023-07-30T02:51:59;16.17;;;8.38;;
21014;SDS011;19207;-23.482;-46.500;2023-07-30T02:54:46;13.82;;;7.55;;
21014;SDS011;19207;-23.482;-46.500;2023-07-30T02:57:33;12.85;;;7.65;;
21014;SDS011;19207;-23.482;-46.500;2023-07-30T03:00:20;19.58;;;9.50;;
21014;SDS011;19207;-23.482;-46.500;2023-07-30T03:03:07;22.58;;;10.85;;
21014;SDS011;19207;-23.482;-46.500;2023-07-30T03:05:54;23.10;;;10.75;;
21014;SDS011;19207;-23.482;-46.500;2023-07-30T03:08:41;14.82;;;9.13;;
21014;SDS011;19207;-23.482;-46.500;2023-07-30T03:11:28;19.23;;;9.23;;
21014;SDS011;19207;-23.482;-46.500;2023-07-30T03:14:16;18.30;;;10.02;;
21014;SDS011;19207;-23.482;-46.500;2023-07-30T03:17:06;20.73;;;10.82;;
21014;SDS011;19207;-23.482;-46.500;2023-07-30T03:19:53;18.42;;;9.75;;
21014;SDS011;19207;-23.482;-46.500;2023-07-30T03:22:40;23.42;;;10.68;;
21014;SDS011;19207;-23.482;-46.500;2023-07-30T03:25:27;25.25;;;9.50;;
21014;SDS011;19207;-23.482;-46.500;2023-07-30T03:28:14;17.85;;;9.32;;
21014;SDS011;19207;-23.482;-46.500;2023-07-30T03:31:01;13.27;;;8.57;;
21014;SDS011;19207;-23.482;-46.500;2023-07-30T03:33:49;18.48;;;9.77;;
21014;SDS011;19207;-23.482;-46.500;2023-07-30T03:36:36;18.65;;;10.18;;
21014;SDS011;19207;-23.482;-46.500;2023-07-30T03:39:23;20.30;;;9.77;;
21014;SDS011;19207;-23.482;-46.500;2023-07-30T03:42:10;15.80;;;8.55;;
21014;SDS011;19207;-23.482;-46.500;2023-07-30T03:44:57;17.12;;;9.32;;
21014;SDS011;19207;-23.482;-46.500;2023-07-30T03:47:44;18.50;;;9.27;;
21014;SDS011;19207;-23.482;-46.500;2023-07-30T03:50:31;15.85;;;9.07;;
21014;SDS011;19207;-23.482;-46.500;2023-07-30T03:53:19;16.30;;;9.10;;
21014;SDS011;19207;-23.482;-46.500;2023-07-30T03:56:06;21.15;;;10.68;;
21014;SDS011;19207;-23.482;-46.500;2023-07-30T03:58:53;19.73;;;10.02;;
21014;SDS011;19207;-23.482;-46.500;2023-07-30T04:01:40;16.98;;;9.02;;
21014;SDS011;19207;-23.482;-46.500;2023-07-30T04:04:27;12.48;;;7.43;;
21014;SDS011;19207;-23.482;-46.500;2023-07-30T04:07:14;16.37;;;7.78;;
21014;SDS011;19207;-23.482;-46.500;2023-07-30T04:10:01;19.15;;;10.35;;
21014;SDS011;19207;-23.482;-46.500;2023-07-30T04:12:49;25.30;;;10.15;;
21014;SDS011;19207;-23.482;-46.500;2023-07-30T04:15:36;25.95;;;9.75;;
21014;SDS011;19207;-23.482;-46.500;2023-07-30T04:18:23;20.12;;;11.82;;
21014;SDS011;19207;-23.482;-46.500;2023-07-30T04:21:10;25.35;;;12.07;;
21014;SDS011;19207;-23.482;-46.500;2023-07-30T04:23:57;19.35;;;11.68;;
21014;SDS011;19207;-23.482;-46.500;2023-07-30T04:26:44;22.33;;;12.20;;
21014;SDS011;19207;-23.482;-46.500;2023-07-30T04:29:31;23.52;;;12.02;;
21014;SDS011;19207;-23.482;-46.500;2023-07-30T04:32:19;19.67;;;10.93;;
21014;SDS011;19207;-23.482;-46.500;2023-07-30T04:35:06;18.90;;;10.85;;
21014;SDS011;19207;-23.482;-46.500;2023-07-30T04:37:53;28.83;;;14.13;;
21014;SDS011;19207;-23.482;-46.500;2023-07-30T04:40:40;26.58;;;12.45;;
21014;SDS011;19207;-23.482;-46.500;2023-07-30T04:43:27;27.27;;;11.95;;
21014;SDS011;19207;-23.482;-46.500;2023-07-30T04:46:15;25.48;;;11.77;;
21014;SDS011;19207;-23.482;-46.500;2023-07-30T04:49:02;22.27;;;10.20;;
21014;SDS011;19207;-23.482;-46.500;2023-07-30T04:51:52;17.50;;;9.93;;
21014;SDS011;19207;-23.482;-46.500;2023-07-30T04:54:40;18.00;;;7.78;;
21014;SDS011;19207;-23.482;-46.500;2023-07-30T04:57:27;11.52;;;7.00;;
21014;SDS011;19207;-23.482;-46.500;2023-07-30T05:00:13;16.23;;;7.75;;
21014;SDS011;19207;-23.482;-46.500;2023-07-30T05:03:00;14.45;;;7.87;;
21014;SDS011;19207;-23.482;-46.500;2023-07-30T05:05:48;13.73;;;7.32;;
21014;SDS011;19207;-23.482;-46.500;2023-07-30T05:08:35;15.60;;;8.30;;
21014;SDS011;19207;-23.482;-46.500;2023-07-30T05:11:22;14.52;;;7.22;;
21014;SDS011;19207;-23.482;-46.500;2023-07-30T05:14:09;14.65;;;7.47;;
21014;SDS011;19207;-23.482;-46.500;2023-07-30T05:16:56;12.88;;;7.30;;
21014;SDS011;19207;-23.482;-46.500;2023-07-30T05:19:43;15.90;;;7.70;;
21014;SDS011;19207;-23.482;-46.500;2023-07-30T05:22:30;16.35;;;7.70;;
21014;SDS011;19207;-23.482;-46.500;2023-07-30T05:25:17;14.90;;;8.32;;
21014;SDS011;19207;-23.482;-46.500;2023-07-30T05:28:06;15.30;;;7.53;;
21014;SDS011;19207;-23.482;-46.500;2023-07-30T05:30:53;14.13;;;7.70;;
21014;SDS011;19207;-23.482;-46.500;2023-07-30T05:33:40;15.68;;;7.40;;
21014;SDS011;19207;-23.482;-46.500;2023-07-30T05:36:27;18.00;;;7.55;;
21014;SDS011;19207;-23.482;-46.500;2023-07-30T05:39:14;14.95;;;8.02;;
21014;SDS011;19207;-23.482;-46.500;2023-07-30T05:42:01;15.68;;;8.48;;
21014;SDS011;19207;-23.482;-46.500;2023-07-30T05:44:49;16.37;;;8.02;;
21014;SDS011;19207;-23.482;-46.500;2023-07-30T05:47:36;18.08;;;8.52;;
21014;SDS011;19207;-23.482;-46.500;2023-07-30T05:50:23;21.35;;;7.68;;
21014;SDS011;19207;-23.482;-46.500;2023-07-30T05:53:10;21.58;;;8.65;;
21014;SDS011;19207;-23.482;-46.500;2023-07-30T05:55:58;16.25;;;8.60;;
21014;SDS011;19207;-23.482;-46.500;2023-07-30T05:58:45;20.88;;;8.13;;
21014;SDS011;19207;-23.482;-46.500;2023-07-30T06:01:32;19.23;;;8.85;;
21014;SDS011;19207;-23.482;-46.500;2023-07-30T06:04:19;14.93;;;8.40;;
21014;SDS011;19207;-23.482;-46.500;2023-07-30T06:07:06;12.68;;;7.35;;
21014;SDS011;19207;-23.482;-46.500;2023-07-30T06:09:53;15.25;;;6.95;;
21014;SDS011;19207;-23.482;-46.500;2023-07-30T06:12:40;11.88;;;6.85;;
21014;SDS011;19207;-23.482;-46.500;2023-07-30T06:15:27;10.73;;;6.07;;
21014;SDS011;19207;-23.482;-46.500;2023-07-30T06:18:30;10.68;;;5.65;;
21014;SDS011;19207;-23.482;-46.500;2023-07-30T06:21:16;10.23;;;5.62;;
21014;SDS011;19207;-23.482;-46.500;2023-07-30T06:24:03;11.40;;;6.07;;
21014;SDS011;19207;-23.482;-46.500;2023-07-30T06:26:50;11.27;;;5.68;;
21014;SDS011;19207;-23.482;-46.500;2023-07-30T06:29:38;10.82;;;5.45;;
21014;SDS011;19207;-23.482;-46.500;2023-07-30T06:32:24;13.45;;;6.50;;
21014;SDS011;19207;-23.482;-46.500;2023-07-30T06:35:11;13.25;;;7.28;;
21014;SDS011;19207;-23.482;-46.500;2023-07-30T06:37:59;17.27;;;8.07;;
21014;SDS011;19207;-23.482;-46.500;2023-07-30T06:40:45;5.78;;;4.68;;
21014;SDS011;19207;-23.482;-46.500;2023-07-30T06:43:32;9.13;;;3.72;;
21014;SDS011;19207;-23.482;-46.500;2023-07-30T06:46:19;7.37;;;3.87;;
21014;SDS011;19207;-23.482;-46.500;2023-07-30T06:49:06;8.10;;;3.35;;
21014;SDS011;19207;-23.482;-46.500;2023-07-30T06:51:53;4.75;;;3.60;;
21014;SDS011;19207;-23.482;-46.500;2023-07-30T06:54:40;6.43;;;4.05;;
21014;SDS011;19207;-23.482;-46.500;2023-07-30T06:57:27;6.07;;;3.10;;
21014;SDS011;19207;-23.482;-46.500;2023-07-30T07:00:14;6.18;;;2.80;;
21014;SDS011;19207;-23.482;-46.500;2023-07-30T07:03:07;8.25;;;2.90;;
21014;SDS011;19207;-23.482;-46.500;2023-07-30T07:05:54;5.60;;;3.30;;
21014;SDS011;19207;-23.482;-46.500;2023-07-30T07:08:41;3.80;;;2.75;;
21014;SDS011;19207;-23.482;-46.500;2023-07-30T07:11:28;10.27;;;3.25;;
21014;SDS011;19207;-23.482;-46.500;2023-07-30T07:14:15;6.35;;;3.03;;
21014;SDS011;19207;-23.482;-46.500;2023-07-30T07:17:02;14.93;;;2.97;;
21014;SDS011;19207;-23.482;-46.500;2023-07-30T07:19:48;7.07;;;2.95;;
21014;SDS011;19207;-23.482;-46.500;2023-07-30T07:22:35;10.27;;;3.10;;
21014;SDS011;19207;-23.482;-46.500;2023-07-30T07:25:22;15.80;;;3.22;;
21014;SDS011;19207;-23.482;-46.500;2023-07-30T07:28:09;18.62;;;3.37;;
21014;SDS011;19207;-23.482;-46.500;2023-07-30T07:30:56;8.95;;;3.40;;
21014;SDS011;19207;-23.482;-46.500;2023-07-30T07:33:44;9.38;;;3.05;;
21014;SDS011;19207;-23.482;-46.500;2023-07-30T07:36:31;11.35;;;3.20;;
21014;SDS011;19207;-23.482;-46.500;2023-07-30T07:39:18;7.05;;;2.80;;
21014;SDS011;19207;-23.482;-46.500;2023-07-30T07:42:05;11.52;;;3.03;;
21014;SDS011;19207;-23.482;-46.500;2023-07-30T07:44:52;11.75;;;3.55;;
21014;SDS011;19207;-23.482;-46.500;2023-07-30T07:47:39;9.18;;;2.95;;
21014;SDS011;19207;-23.482;-46.500;2023-07-30T07:50:26;7.15;;;2.60;;
21014;SDS011;19207;-23.482;-46.500;2023-07-30T07:53:13;12.02;;;3.33;;
21014;SDS011;19207;-23.482;-46.500;2023-07-30T07:56:00;10.18;;;3.00;;
21014;SDS011;19207;-23.482;-46.500;2023-07-30T07:58:47;11.75;;;3.12;;
21014;SDS011;19207;-23.482;-46.500;2023-07-30T08:01:34;14.25;;;2.83;;
21014;SDS011;19207;-23.482;-46.500;2023-07-30T08:04:21;6.90;;;2.75;;
21014;SDS011;19207;-23.482;-46.500;2023-07-30T08:07:08;7.93;;;2.75;;
21014;SDS011;19207;-23.482;-46.500;2023-07-30T08:09:55;14.77;;;3.33;;
21014;SDS011;19207;-23.482;-46.500;2023-07-30T08:12:42;9.82;;;3.35;;
21014;SDS011;19207;-23.482;-46.500;2023-07-30T08:15:30;12.57;;;3.12;;
21014;SDS011;19207;-23.482;-46.500;2023-07-30T08:18:17;11.50;;;3.15;;
21014;SDS011;19207;-23.482;-46.500;2023-07-30T08:21:03;19.10;;;3.37;;
21014;SDS011;19207;-23.482;-46.500;2023-07-30T08:23:50;10.55;;;2.90;;
21014;SDS011;19207;-23.482;-46.500;2023-07-30T08:26:37;11.60;;;3.20;;
21014;SDS011;19207;-23.482;-46.500;2023-07-30T08:29:24;13.73;;;3.60;;
21014;SDS011;19207;-23.482;-46.500;2023-07-30T08:32:11;12.20;;;3.45;;
21014;SDS011;19207;-23.482;-46.500;2023-07-30T08:34:58;9.65;;;3.03;;
21014;SDS011;19207;-23.482;-46.500;2023-07-30T08:37:45;10.45;;;3.17;;
21014;SDS011;19207;-23.482;-46.500;2023-07-30T08:40:33;10.35;;;3.22;;
21014;SDS011;19207;-23.482;-46.500;2023-07-30T08:43:20;12.73;;;3.35;;
21014;SDS011;19207;-23.482;-46.500;2023-07-30T08:46:07;12.98;;;4.87;;
21014;SDS011;19207;-23.482;-46.500;2023-07-30T08:48:55;13.23;;;4.20;;
21014;SDS011;19207;-23.482;-46.500;2023-07-30T08:51:42;22.65;;;4.70;;
21014;SDS011;19207;-23.482;-46.500;2023-07-30T08:54:30;18.80;;;4.93;;
21014;SDS011;19207;-23.482;-46.500;2023-07-30T08:57:17;18.65;;;5.25;;
21014;SDS011;19207;-23.482;-46.500;2023-07-30T09:00:06;12.77;;;5.47;;
21014;SDS011;19207;-23.482;-46.500;2023-07-30T09:02:58;17.77;;;6.75;;
21014;SDS011;19207;-23.482;-46.500;2023-07-30T09:05:46;24.30;;;7.90;;
21014;SDS011;19207;-23.482;-46.500;2023-07-30T09:08:34;20.60;;;7.43;;
21014;SDS011;19207;-23.482;-46.500;2023-07-30T09:11:24;23.62;;;8.52;;
21014;SDS011;19207;-23.482;-46.500;2023-07-30T09:14:14;21.77;;;8.38;;
21014;SDS011;19207;-23.482;-46.500;2023-07-30T09:17:06;23.42;;;8.18;;
21014;SDS011;19207;-23.482;-46.500;2023-07-30T09:19:53;22.45;;;7.80;;
21014;SDS011;19207;-23.482;-46.500;2023-07-30T09:22:40;24.35;;;8.18;;
21014;SDS011;19207;-23.482;-46.500;2023-07-30T09:25:27;26.70;;;8.02;;
21014;SDS011;19207;-23.482;-46.500;2023-07-30T09:28:14;23.33;;;8.63;;
21014;SDS011;19207;-23.482;-46.500;2023-07-30T09:31:01;19.15;;;6.10;;
21014;SDS011;19207;-23.482;-46.500;2023-07-30T09:33:50;15.48;;;6.50;;
21014;SDS011;19207;-23.482;-46.500;2023-07-30T09:36:37;17.58;;;8.18;;
21014;SDS011;19207;-23.482;-46.500;2023-07-30T09:39:25;20.33;;;7.80;;
21014;SDS011;19207;-23.482;-46.500;2023-07-30T09:42:12;19.52;;;6.35;;
21014;SDS011;19207;-23.482;-46.500;2023-07-30T09:44:58;16.70;;;6.55;;
21014;SDS011;19207;-23.482;-46.500;2023-07-30T09:47:46;20.17;;;8.27;;
21014;SDS011;19207;-23.482;-46.500;2023-07-30T09:50:33;14.57;;;7.40;;
21014;SDS011;19207;-23.482;-46.500;2023-07-30T09:53:21;20.62;;;9.50;;
21014;SDS011;19207;-23.482;-46.500;2023-07-30T09:56:08;18.62;;;7.72;;
21014;SDS011;19207;-23.482;-46.500;2023-07-30T09:58:54;15.80;;;5.53;;
21014;SDS011;19207;-23.482;-46.500;2023-07-30T10:01:45;14.57;;;5.18;;
21014;SDS011;19207;-23.482;-46.500;2023-07-30T10:04:36;11.80;;;4.07;;
21014;SDS011;19207;-23.482;-46.500;2023-07-30T10:07:26;12.20;;;3.80;;
21014;SDS011;19207;-23.482;-46.500;2023-07-30T10:10:13;10.02;;;3.72;;
21014;SDS011;19207;-23.482;-46.500;2023-07-30T10:13:02;15.43;;;4.20;;
21014;SDS011;19207;-23.482;-46.500;2023-07-30T10:15:50;15.02;;;4.25;;
21014;SDS011;19207;-23.482;-46.500;2023-07-30T10:18:40;9.63;;;3.60;;
21014;SDS011;19207;-23.482;-46.500;2023-07-30T10:21:28;13.68;;;6.30;;
21014;SDS011;19207;-23.482;-46.500;2023-07-30T10:24:16;11.02;;;5.28;;
21014;SDS011;19207;-23.482;-46.500;2023-07-30T10:27:09;13.65;;;4.70;;
21014;SDS011;19207;-23.482;-46.500;2023-07-30T10:33:02;10.68;;;4.57;;
21014;SDS011;19207;-23.482;-46.500;2023-07-30T10:35:52;16.20;;;3.70;;
21014;SDS011;19207;-23.482;-46.500;2023-07-30T10:38:40;13.60;;;4.22;;
21014;SDS011;19207;-23.482;-46.500;2023-07-30T10:41:27;11.38;;;3.40;;
21014;SDS011;19207;-23.482;-46.500;2023-07-30T10:44:18;10.05;;;3.65;;
21014;SDS011;19207;-23.482;-46.500;2023-07-30T10:47:05;13.57;;;3.70;;
21014;SDS011;19207;-23.482;-46.500;2023-07-30T10:49:52;14.00;;;4.25;;
21014;SDS011;19207;-23.482;-46.500;2023-07-30T10:52:41;15.00;;;5.12;;
21014;SDS011;19207;-23.482;-46.500;2023-07-30T10:55:31;6.87;;;4.15;;
21014;SDS011;19207;-23.482;-46.500;2023-07-30T10:58:18;10.52;;;4.15;;
21014;SDS011;19207;-23.482;-46.500;2023-07-30T11:01:06;10.02;;;4.25;;
21014;SDS011;19207;-23.482;-46.500;2023-07-30T11:03:53;7.80;;;3.92;;
21014;SDS011;19207;-23.482;-46.500;2023-07-30T11:06:44;10.05;;;4.32;;
21014;SDS011;19207;-23.482;-46.500;2023-07-30T11:09:32;10.05;;;4.18;;
21014;SDS011;19207;-23.482;-46.500;2023-07-30T11:12:19;12.05;;;4.35;;
21014;SDS011;19207;-23.482;-46.500;2023-07-30T11:15:08;13.20;;;6.15;;
21014;SDS011;19207;-23.482;-46.500;2023-07-30T11:17:55;10.57;;;5.32;;
21014;SDS011;19207;-23.482;-46.500;2023-07-30T11:20:43;13.48;;;4.50;;
21014;SDS011;19207;-23.482;-46.500;2023-07-30T11:23:30;10.70;;;4.75;;
21014;SDS011;19207;-23.482;-46.500;2023-07-30T11:26:17;9.23;;;4.60;;
21014;SDS011;19207;-23.482;-46.500;2023-07-30T11:32:20;14.25;;;4.03;;
21014;SDS011;19207;-23.482;-46.500;2023-07-30T11:35:11;6.07;;;3.78;;
21014;SDS011;19207;-23.482;-46.500;2023-07-30T11:37:58;6.03;;;3.60;;
21014;SDS011;19207;-23.482;-46.500;2023-07-30T11:40:46;8.68;;;3.90;;
21014;SDS011;19207;-23.482;-46.500;2023-07-30T11:43:33;6.30;;;3.80;;
21014;SDS011;19207;-23.482;-46.500;2023-07-30T11:46:22;6.87;;;3.67;;
21014;SDS011;19207;-23.482;-46.500;2023-07-30T11:49:13;13.65;;;4.00;;
21014;SDS011;19207;-23.482;-46.500;2023-07-30T11:52:06;7.53;;;3.97;;
21014;SDS011;19207;-23.482;-46.500;2023-07-30T11:55:03;9.85;;;4.32;;
21014;SDS011;19207;-23.482;-46.500;2023-07-30T11:57:50;5.65;;;3.78;;
21014;SDS011;19207;-23.482;-46.500;2023-07-30T12:00:38;7.50;;;3.53;;
21014;SDS011;19207;-23.482;-46.500;2023-07-30T12:03:25;9.45;;;3.92;;
21014;SDS011;19207;-23.482;-46.500;2023-07-30T12:06:12;7.12;;;3.28;;
21014;SDS011;19207;-23.482;-46.500;2023-07-30T12:08:59;13.57;;;3.25;;
21014;SDS011;19207;-23.482;-46.500;2023-07-30T12:11:59;6.12;;;3.50;;
21014;SDS011;19207;-23.482;-46.500;2023-07-30T12:17:36;6.00;;;3.50;;
21014;SDS011;19207;-23.482;-46.500;2023-07-30T12:20:26;10.23;;;3.87;;
21014;SDS011;19207;-23.482;-46.500;2023-07-30T12:23:14;8.15;;;3.90;;
21014;SDS011;19207;-23.482;-46.500;2023-07-30T12:26:02;8.73;;;3.78;;
21014;SDS011;19207;-23.482;-46.500;2023-07-30T12:28:52;6.87;;;4.20;;
21014;SDS011;19207;-23.482;-46.500;2023-07-30T12:31:39;8.32;;;4.00;;
21014;SDS011;19207;-23.482;-46.500;2023-07-30T12:34:26;10.50;;;3.85;;
21014;SDS011;19207;-23.482;-46.500;2023-07-30T12:37:13;7.97;;;3.30;;
21014;SDS011;19207;-23.482;-46.500;2023-07-30T12:40:00;6.03;;;3.75;;
21014;SDS011;19207;-23.482;-46.500;2023-07-30T12:42:48;5.60;;;3.30;;
21014;SDS011;19207;-23.482;-46.500;2023-07-30T12:45:35;9.05;;;3.72;;
21014;SDS011;19207;-23.482;-46.500;2023-07-30T12:48:23;8.32;;;3.60;;
21014;SDS011;19207;-23.482;-46.500;2023-07-30T12:51:10;8.57;;;3.80;;
21014;SDS011;19207;-23.482;-46.500;2023-07-30T12:53:57;5.55;;;3.80;;
21014;SDS011;19207;-23.482;-46.500;2023-07-30T12:56:44;6.93;;;3.30;;
21014;SDS011;19207;-23.482;-46.500;2023-07-30T12:59:32;11.50;;;4.05;;
21014;SDS011;19207;-23.482;-46.500;2023-07-30T13:02:19;4.55;;;3.50;;
21014;SDS011;19207;-23.482;-46.500;2023-07-30T13:05:06;10.15;;;3.60;;
21014;SDS011;19207;-23.482;-46.500;2023-07-30T13:07:53;10.48;;;4.00;;
21014;SDS011;19207;-23.482;-46.500;2023-07-30T13:10:40;7.78;;;4.20;;
21014;SDS011;19207;-23.482;-46.500;2023-07-30T13:13:27;8.73;;;4.43;;
21014;SDS011;19207;-23.482;-46.500;2023-07-30T13:16:14;11.18;;;4.80;;
21014;SDS011;19207;-23.482;-46.500;2023-07-30T13:19:02;9.98;;;4.75;;
21014;SDS011;19207;-23.482;-46.500;2023-07-30T13:21:49;12.75;;;4.22;;
21014;SDS011;19207;-23.482;-46.500;2023-07-30T13:24:36;6.80;;;4.07;;
21014;SDS011;19207;-23.482;-46.500;2023-07-30T13:27:24;6.32;;;3.80;;
21014;SDS011;19207;-23.482;-46.500;2023-07-30T13:30:11;4.65;;;3.80;;
21014;SDS011;19207;-23.482;-46.500;2023-07-30T13:32:58;7.45;;;4.07;;
21014;SDS011;19207;-23.482;-46.500;2023-07-30T13:35:45;5.30;;;4.12;;
21014;SDS011;19207;-23.482;-46.500;2023-07-30T13:38:32;10.52;;;4.40;;
21014;SDS011;19207;-23.482;-46.500;2023-07-30T13:44:53;5.28;;;4.03;;
21014;SDS011;19207;-23.482;-46.500;2023-07-30T13:47:40;9.15;;;5.05;;
21014;SDS011;19207;-23.482;-46.500;2023-07-30T13:50:27;6.35;;;4.12;;
21014;SDS011;19207;-23.482;-46.500;2023-07-30T13:53:14;6.62;;;4.15;;
21014;SDS011;19207;-23.482;-46.500;2023-07-30T13:56:01;12.40;;;4.62;;
21014;SDS011;19207;-23.482;-46.500;2023-07-30T13:58:48;12.60;;;5.32;;
21014;SDS011;19207;-23.482;-46.500;2023-07-30T14:01:34;8.23;;;4.43;;
21014;SDS011;19207;-23.482;-46.500;2023-07-30T14:04:21;7.60;;;4.47;;
21014;SDS011;19207;-23.482;-46.500;2023-07-30T14:07:08;9.82;;;4.50;;
21014;SDS011;19207;-23.482;-46.500;2023-07-30T14:09:55;13.27;;;6.30;;
21014;SDS011;19207;-23.482;-46.500;2023-07-30T14:12:42;23.58;;;9.70;;
21014;SDS011;19207;-23.482;-46.500;2023-07-30T14:15:29;7.95;;;4.40;;
21014;SDS011;19207;-23.482;-46.500;2023-07-30T14:18:15;9.57;;;3.90;;
21014;SDS011;19207;-23.482;-46.500;2023-07-30T14:21:03;7.60;;;4.10;;
21014;SDS011;19207;-23.482;-46.500;2023-07-30T14:23:50;9.48;;;4.50;;
21014;SDS011;19207;-23.482;-46.500;2023-07-30T14:26:37;8.45;;;4.90;;
21014;SDS011;19207;-23.482;-46.500;2023-07-30T14:29:23;7.82;;;4.55;;
21014;SDS011;19207;-23.482;-46.500;2023-07-30T14:32:10;11.75;;;3.90;;
21014;SDS011;19207;-23.482;-46.500;2023-07-30T14:34:57;8.88;;;4.45;;
21014;SDS011;19207;-23.482;-46.500;2023-07-30T14:37:44;8.27;;;4.62;;
21014;SDS011;19207;-23.482;-46.500;2023-07-30T14:40:32;14.15;;;8.32;;
21014;SDS011;19207;-23.482;-46.500;2023-07-30T14:43:19;12.55;;;3.87;;
21014;SDS011;19207;-23.482;-46.500;2023-07-30T14:46:06;6.50;;;3.50;;
21014;SDS011;19207;-23.482;-46.500;2023-07-30T14:48:59;5.93;;;3.70;;
21014;SDS011;19207;-23.482;-46.500;2023-07-30T14:51:46;12.63;;;6.25;;
21014;SDS011;19207;-23.482;-46.500;2023-07-30T14:54:33;4.93;;;3.70;;
21014;SDS011;19207;-23.482;-46.500;2023-07-30T14:57:19;13.48;;;6.28;;
21014;SDS011;19207;-23.482;-46.500;2023-07-30T15:00:07;7.57;;;4.00;;
21014;SDS011;19207;-23.482;-46.500;2023-07-30T15:02:54;6.65;;;3.80;;
21014;SDS011;19207;-23.482;-46.500;2023-07-30T15:05:41;9.07;;;5.68;;
21014;SDS011;19207;-23.482;-46.500;2023-07-30T15:08:28;11.95;;;4.65;;
21014;SDS011;19207;-23.482;-46.500;2023-07-30T15:11:15;5.55;;;3.70;;
21014;SDS011;19207;-23.482;-46.500;2023-07-30T15:14:02;6.87;;;4.22;;
21014;SDS011;19207;-23.482;-46.500;2023-07-30T15:16:48;11.77;;;6.62;;
21014;SDS011;19207;-23.482;-46.500;2023-07-30T15:19:35;10.13;;;4.37;;
21014;SDS011;19207;-23.482;-46.500;2023-07-30T15:22:23;10.52;;;4.75;;
21014;SDS011;19207;-23.482;-46.500;2023-07-30T15:25:09;7.05;;;4.10;;
21014;SDS011;19207;-23.482;-46.500;2023-07-30T15:27:56;6.87;;;4.18;;
21014;SDS011;19207;-23.482;-46.500;2023-07-30T15:30:45;13.82;;;6.45;;
21014;SDS011;19207;-23.482;-46.500;2023-07-30T15:33:32;14.20;;;5.87;;
21014;SDS011;19207;-23.482;-46.500;2023-07-30T15:36:19;6.95;;;4.00;;
21014;SDS011;19207;-23.482;-46.500;2023-07-30T15:39:06;8.00;;;4.60;;
21014;SDS011;19207;-23.482;-46.500;2023-07-30T15:41:53;10.13;;;5.80;;
21014;SDS011;19207;-23.482;-46.500;2023-07-30T15:44:41;10.90;;;4.60;;
21014;SDS011;19207;-23.482;-46.500;2023-07-30T15:47:28;10.95;;;5.40;;
21014;SDS011;19207;-23.482;-46.500;2023-07-30T15:50:15;8.23;;;5.87;;
21014;SDS011;19207;-23.482;-46.500;2023-07-30T15:53:03;7.00;;;5.30;;
21014;SDS011;19207;-23.482;-46.500;2023-07-30T15:55:50;9.18;;;5.10;;
21014;SDS011;19207;-23.482;-46.500;2023-07-30T15:58:37;7.75;;;5.60;;
21014;SDS011;19207;-23.482;-46.500;2023-07-30T16:01:24;12.18;;;5.57;;
21014;SDS011;19207;-23.482;-46.500;2023-07-30T16:04:10;9.38;;;5.20;;
21014;SDS011;19207;-23.482;-46.500;2023-07-30T16:06:57;8.13;;;5.50;;
21014;SDS011;19207;-23.482;-46.500;2023-07-30T16:09:45;9.50;;;5.15;;